Colesburg, Iowa
Current Conditions -  °F | °C
As of 11:35 PM on Saturday 25 Oct 2014 (Local Time) from KPDC Reporting Station
Clear Clear  
Wind Chill: 43°   Ceiling: Unl
Heat Index: 43°   Visibility: 10mi
Dew Point: 34°   Wind: 0mph
Humidity: 71%   Direction: NA
Pressure: 30.04"   Gusts: NA
Location:  42.64°N, 91.2°W
Report Text: KPDC 260435Z AUTO 00000KT 10SM CLR 06/01 A3004 RMK AO2 T00610012
Loading
Personal Weather Stations






























Interactive Weather Map
Tropical Storm Tracking
New forecast layout! Learn more

10-Day Weather Forecast

Advertisements
Track Severe Weather on mobile